Terminal Aerodrome Forecast
Issued by NWS

Home | Current Version | Previous Version | Text Only | Print | Product List | Glossary On
Versions: 1 2 3 4 5 6 7 8 9 10 11 12 13 14 15 16 17
000
FTUS41 KCAR 282333
TAFHUL
TAF
KHUL 282333Z 2900/2924 32004KT P6SM VCSH OVC040
      TEMPO 2900/2902 6SM -SHSN
     FM290400 32004KT P6SM BKN040
     FM290800 28004KT P6SM SCT050
     FM292000 22006KT P6SM SCT050=

USA.gov is the U.S. government's official web portal to all federal, state and local government web resources and services.